createdAt,value
2023-05-19T00:02:06.174Z,101127.16
2023-05-19T00:04:35.399Z,101116.69
2023-05-19T00:07:03.485Z,101128.28
2023-05-19T00:09:31.453Z,101120.16
2023-05-19T00:11:59.059Z,101123.44
2023-05-19T00:14:26.418Z,101121.53
2023-05-19T00:16:56.075Z,101128.28
2023-05-19T00:19:24.579Z,101127.47
2023-05-19T00:21:52.038Z,101131.44
2023-05-19T00:24:19.172Z,101131.19
2023-05-19T00:26:46.580Z,101133.78
2023-05-19T00:29:18.391Z,101130.44
2023-05-19T00:31:46.653Z,101125.13
2023-05-19T00:34:14.133Z,101124.53
2023-05-19T00:36:41.528Z,101123.97
2023-05-19T00:39:08.668Z,101125.69
2023-05-19T00:41:36.106Z,101123.34
2023-05-19T00:44:03.590Z,101121.75
2023-05-19T00:46:30.874Z,101126.16
2023-05-19T00:48:58.365Z,101122.50
2023-05-19T00:51:26.817Z,101125.13
2023-05-19T00:53:54.035Z,101125.13
2023-05-19T00:56:21.861Z,101121.56
2023-05-19T00:58:51.063Z,101125.13
2023-05-19T01:01:19.323Z,101132.00
2023-05-19T01:03:48.184Z,101125.75
2023-05-19T01:06:15.583Z,101122.75
2023-05-19T01:08:42.767Z,101122.50
2023-05-19T01:11:10.753Z,101119.75
2023-05-19T01:13:40.336Z,101120.22
2023-05-19T01:16:17.404Z,101126.75
2023-05-19T01:18:47.873Z,101123.19
2023-05-19T01:21:17.720Z,101130.06
2023-05-19T01:24:12.000Z,101129.56
2023-05-19T01:26:56.895Z,101132.91
2023-05-19T01:29:39.875Z,101127.22
2023-05-19T01:32:08.121Z,101126.19
2023-05-19T01:34:42.073Z,101123.66
2023-05-19T01:37:09.728Z,101123.28
2023-05-19T01:39:37.455Z,101124.72
2023-05-19T01:42:04.989Z,101125.00
2023-05-19T01:44:33.059Z,101114.97
2023-05-19T01:47:01.231Z,101113.88
2023-05-19T01:49:28.535Z,101117.72
2023-05-19T01:51:56.288Z,101117.12
2023-05-19T01:54:23.782Z,101117.47
2023-05-19T01:57:17.432Z,101116.97
2023-05-19T02:00:15.881Z,101115.37
2023-05-19T02:02:49.575Z,101107.91
2023-05-19T02:05:41.853Z,101111.25
2023-05-19T02:08:12.548Z,101120.09
2023-05-19T02:10:43.490Z,101122.94
2023-05-19T02:13:14.113Z,101122.19
2023-05-19T02:15:42.431Z,101123.28
2023-05-19T02:18:11.560Z,101125.16
2023-05-19T02:20:40.033Z,101123.78
2023-05-19T02:23:07.528Z,101118.66
2023-05-19T02:25:35.048Z,101124.72
2023-05-19T02:28:02.315Z,101127.41
2023-05-19T02:30:32.069Z,101108.16
2023-05-19T02:33:00.587Z,101113.03
2023-05-19T02:35:28.068Z,101106.28
2023-05-19T02:37:55.548Z,101111.59
2023-05-19T02:40:23.316Z,101101.75
2023-05-19T02:42:50.578Z,101104.47
2023-05-19T02:45:18.074Z,101107.31
2023-05-19T02:47:45.385Z,101108.25
2023-05-19T02:50:12.577Z,101108.66
2023-05-19T02:52:40.400Z,101112.75
2023-05-19T02:55:08.203Z,101105.16
2023-05-19T02:57:35.601Z,101110.16
2023-05-19T03:00:03.587Z,101113.59
2023-05-19T03:02:33.386Z,101123.19
2023-05-19T03:05:02.858Z,101124.87
2023-05-19T03:07:30.982Z,101126.44
2023-05-19T03:09:58.178Z,101131.84
2023-05-19T03:12:25.413Z,101135.78
2023-05-19T03:14:52.937Z,101144.16
2023-05-19T03:17:20.216Z,101140.34
2023-05-19T03:19:47.535Z,101136.22
2023-05-19T03:22:15.413Z,101142.88
2023-05-19T03:24:42.587Z,101138.09
2023-05-19T03:27:11.990Z,101135.94
2023-05-19T03:29:39.543Z,101138.41
2023-05-19T03:32:06.926Z,101139.25
2023-05-19T03:34:35.468Z,101139.47
2023-05-19T03:37:03.190Z,101143.84
2023-05-19T03:39:31.046Z,101142.31
2023-05-19T03:41:58.268Z,101133.41
2023-05-19T03:44:26.230Z,101139.06
2023-05-19T03:46:53.564Z,101123.09
2023-05-19T03:49:21.206Z,101125.63
2023-05-19T03:51:59.635Z,101125.37
2023-05-19T03:54:27.503Z,101126.13
2023-05-19T03:56:54.904Z,101131.19
2023-05-19T03:59:23.633Z,101130.78
2023-05-19T04:01:51.584Z,101137.50
2023-05-19T04:04:19.189Z,101132.72
2023-05-19T04:06:46.737Z,101135.50
2023-05-19T04:09:15.826Z,101129.88
2023-05-19T04:11:43.380Z,101138.28
2023-05-19T04:14:10.707Z,101144.91
2023-05-19T04:16:37.944Z,101146.22
2023-05-19T04:19:05.788Z,101161.09
2023-05-19T04:21:33.232Z,101155.19
2023-05-19T04:24:00.441Z,101155.41
2023-05-19T04:26:30.997Z,101159.69
2023-05-19T04:28:58.425Z,101166.34
2023-05-19T04:31:26.083Z,101162.63
2023-05-19T04:33:53.692Z,101162.44
2023-05-19T04:36:21.850Z,101167.59
2023-05-19T04:38:49.434Z,101162.75
2023-05-19T04:41:17.575Z,101157.22
2023-05-19T04:43:45.013Z,101156.63
2023-05-19T04:46:13.961Z,101157.56
2023-05-19T04:48:42.711Z,101160.09
2023-05-19T04:51:10.137Z,101162.34
2023-05-19T04:53:37.363Z,101162.97
2023-05-19T04:56:07.874Z,101170.78
2023-05-19T04:58:35.593Z,101167.75
2023-05-19T05:01:03.855Z,101170.41
2023-05-19T05:03:33.214Z,101165.84
2023-05-19T05:06:01.092Z,101170.91
2023-05-19T05:08:30.184Z,101170.16
2023-05-19T05:10:58.133Z,101177.56
2023-05-19T05:13:26.711Z,101182.25
2023-05-19T05:15:54.470Z,101180.38
2023-05-19T05:18:22.399Z,101180.56
2023-05-19T05:20:50.333Z,101184.75
2023-05-19T05:23:17.875Z,101187.34
2023-05-19T05:25:47.114Z,101186.88
2023-05-19T05:28:14.627Z,101191.25
2023-05-19T05:30:42.059Z,101187.62
2023-05-19T05:33:09.899Z,101191.44
2023-05-19T05:35:37.546Z,101189.94
2023-05-19T05:38:04.906Z,101194.81
2023-05-19T05:40:32.578Z,101195.53
2023-05-19T05:42:59.888Z,101194.38
2023-05-19T05:45:27.669Z,101193.16
2023-05-19T05:47:55.706Z,101203.50
2023-05-19T05:50:23.831Z,101199.16
2023-05-19T05:52:53.193Z,101193.53
2023-05-19T05:55:21.096Z,101191.91
2023-05-19T05:57:50.603Z,101189.53
2023-05-19T06:00:18.637Z,101193.94
2023-05-19T06:02:50.625Z,101195.31
2023-05-19T06:05:18.099Z,101197.41
2023-05-19T06:07:46.787Z,101195.19
2023-05-19T06:10:16.864Z,101201.56
2023-05-19T06:12:44.112Z,101204.75
2023-05-19T06:15:11.631Z,101208.78
2023-05-19T06:17:43.562Z,101204.59
2023-05-19T06:20:11.697Z,101198.84
2023-05-19T06:22:39.235Z,101201.16
2023-05-19T06:25:08.945Z,101207.78
2023-05-19T06:27:36.295Z,101197.06
2023-05-19T06:30:04.249Z,101202.53
2023-05-19T06:32:32.257Z,101211.31
2023-05-19T06:34:59.893Z,101213.88
2023-05-19T06:37:27.395Z,101214.78
2023-05-19T06:39:55.789Z,101218.47
2023-05-19T06:42:24.025Z,101225.22
2023-05-19T06:44:53.068Z,101227.41
2023-05-19T06:47:20.350Z,101223.94
2023-05-19T06:49:50.868Z,101230.78
2023-05-19T06:52:19.158Z,101224.63
2023-05-19T06:54:50.875Z,101229.19
2023-05-19T06:57:18.056Z,101240.84
2023-05-19T06:59:46.757Z,101244.25
2023-05-19T07:02:14.426Z,101234.44
2023-05-19T07:04:42.556Z,101229.94
2023-05-19T07:07:10.457Z,101228.38
2023-05-19T07:09:38.167Z,101230.00
2023-05-19T07:12:05.983Z,101229.97
2023-05-19T07:14:33.657Z,101226.69
2023-05-19T07:17:01.053Z,101215.66
2023-05-19T07:19:28.300Z,101224.22
2023-05-19T07:21:57.029Z,101217.97
2023-05-19T07:24:25.091Z,101210.50
2023-05-19T07:26:52.299Z,101218.50
2023-05-19T07:29:19.789Z,101212.41
2023-05-19T07:31:46.987Z,101210.31
2023-05-19T07:34:14.332Z,101217.66
2023-05-19T07:36:42.142Z,101215.53
2023-05-19T07:39:09.503Z,101220.94
2023-05-19T07:41:36.781Z,101218.53
2023-05-19T07:44:07.763Z,101219.38
2023-05-19T07:46:35.552Z,101210.25
2023-05-19T07:49:03.383Z,101208.88
2023-05-19T07:51:31.779Z,101202.66
2023-05-19T07:53:59.014Z,101209.31
2023-05-19T07:56:26.193Z,101210.13
2023-05-19T07:58:53.689Z,101209.87
2023-05-19T08:01:20.945Z,101198.97
2023-05-19T08:03:48.440Z,101205.84
2023-05-19T08:06:15.699Z,101201.56
2023-05-19T08:08:42.808Z,101202.13
2023-05-19T08:11:10.189Z,101193.53
2023-05-19T08:13:37.292Z,101195.66
2023-05-19T08:16:05.113Z,101201.97
2023-05-19T08:18:32.602Z,101194.53
2023-05-19T08:20:59.762Z,101191.81
2023-05-19T08:23:26.953Z,101183.22
2023-05-19T08:25:54.409Z,101194.34
2023-05-19T08:28:21.566Z,101200.97
2023-05-19T08:30:50.750Z,101195.94
2023-05-19T08:33:20.742Z,101193.91
2023-05-19T08:35:47.937Z,101195.34
2023-05-19T08:38:15.089Z,101194.75
2023-05-19T08:40:42.821Z,101200.28
2023-05-19T08:43:11.240Z,101193.06
2023-05-19T08:45:41.689Z,101191.84
2023-05-19T08:48:09.234Z,101194.97
2023-05-19T08:50:39.884Z,101189.34
2023-05-19T08:53:33.767Z,101190.22
2023-05-19T08:56:10.400Z,101183.63
2023-05-19T08:58:40.205Z,101187.06
2023-05-19T09:01:08.006Z,101183.88
2023-05-19T09:03:39.313Z,101184.22
2023-05-19T09:06:12.575Z,101184.00
2023-05-19T09:08:41.078Z,101182.28
2023-05-19T09:11:09.610Z,101191.16
2023-05-19T09:13:36.785Z,101195.09
2023-05-19T09:16:04.439Z,101188.75
2023-05-19T09:18:31.850Z,101184.56
2023-05-19T09:21:03.223Z,101183.59
2023-05-19T09:23:34.034Z,101182.63
2023-05-19T09:26:07.689Z,101176.53
2023-05-19T09:28:36.841Z,101181.03
2023-05-19T09:31:08.230Z,101182.75
2023-05-19T09:33:37.084Z,101176.09
2023-05-19T09:36:11.575Z,101181.34
2023-05-19T09:38:39.644Z,101176.09
2023-05-19T09:41:08.313Z,101174.16
2023-05-19T09:43:35.637Z,101170.19
2023-05-19T09:46:07.970Z,101163.63
2023-05-19T09:48:36.447Z,101158.38
2023-05-19T09:51:08.214Z,101150.94
2023-05-19T09:53:35.521Z,101153.06
2023-05-19T09:56:04.121Z,101151.03
2023-05-19T09:58:35.419Z,101148.87
2023-05-19T10:01:04.303Z,101143.72
2023-05-19T10:03:35.243Z,101148.09
2023-05-19T10:06:04.502Z,101149.34
2023-05-19T10:08:33.533Z,101154.59
2023-05-19T10:11:00.989Z,101164.44
2023-05-19T10:13:29.473Z,101148.13
2023-05-19T10:15:59.446Z,101147.41
2023-05-19T10:18:30.139Z,101138.75
2023-05-19T10:20:58.185Z,101134.31
2023-05-19T10:23:25.781Z,101136.22
2023-05-19T10:25:56.822Z,101125.00
2023-05-19T10:28:28.391Z,101133.09
2023-05-19T10:30:59.039Z,101122.81
2023-05-19T10:33:42.487Z,101119.75
2023-05-19T10:36:15.914Z,101115.72
2023-05-19T10:38:55.928Z,101116.59
2023-05-19T10:41:37.181Z,101114.59
2023-05-19T10:44:04.999Z,101112.38
2023-05-19T10:46:32.266Z,101112.47
2023-05-19T10:48:59.543Z,101111.78
2023-05-19T10:51:33.727Z,101105.81
2023-05-19T10:54:08.078Z,101110.53
2023-05-19T10:56:42.334Z,101106.62
2023-05-19T10:59:37.170Z,101101.78
2023-05-19T11:02:05.727Z,101106.62
2023-05-19T11:05:07.738Z,101103.31
2023-05-19T11:07:35.561Z,101096.31
2023-05-19T11:10:07.590Z,101101.50
2023-05-19T11:12:45.850Z,101102.16
2023-05-19T11:15:16.536Z,101099.66
2023-05-19T11:17:48.837Z,101106.94
2023-05-19T11:20:26.706Z,101095.66
2023-05-19T11:23:07.197Z,101099.84
2023-05-19T11:25:51.462Z,101097.47
2023-05-19T11:28:20.945Z,101094.66
2023-05-19T11:30:50.807Z,101086.47
2023-05-19T11:33:19.962Z,101089.53
2023-05-19T11:35:49.527Z,101092.03
2023-05-19T11:38:20.383Z,101089.81
2023-05-19T11:40:49.668Z,101092.59
2023-05-19T11:43:16.858Z,101086.06
2023-05-19T11:45:44.420Z,101094.25
2023-05-19T11:48:12.973Z,101096.56
2023-05-19T11:50:44.150Z,101090.13
2023-05-19T11:53:16.725Z,101094.00
2023-05-19T11:55:48.116Z,101088.37
2023-05-19T11:58:16.640Z,101084.91
2023-05-19T12:00:46.252Z,101086.66
2023-05-19T12:03:13.988Z,101087.03
2023-05-19T12:05:45.330Z,101081.97
2023-05-19T12:08:12.959Z,101070.44
2023-05-19T12:10:40.978Z,101074.34
2023-05-19T12:13:11.731Z,101071.84
2023-05-19T12:15:39.258Z,101070.31
2023-05-19T12:18:07.376Z,101061.53
2023-05-19T12:20:37.793Z,101063.50
2023-05-19T12:23:05.753Z,101058.91
2023-05-19T12:25:33.529Z,101060.56
2023-05-19T12:28:04.639Z,101047.37
2023-05-19T12:30:33.203Z,101054.31
2023-05-19T12:33:01.806Z,101044.56
2023-05-19T12:35:30.706Z,101036.66
2023-05-19T12:38:03.369Z,101036.63
2023-05-19T12:40:31.045Z,101031.41
2023-05-19T12:42:59.338Z,101036.38
2023-05-19T12:45:28.572Z,101030.34
2023-05-19T12:47:56.681Z,101027.56
2023-05-19T12:50:30.917Z,101032.09
2023-05-19T12:52:59.971Z,101026.78
2023-05-19T12:55:27.298Z,101025.47
2023-05-19T12:57:57.072Z,101014.13
2023-05-19T13:00:27.756Z,101022.97
2023-05-19T13:02:55.379Z,101021.38
2023-05-19T13:05:22.995Z,101023.03
2023-05-19T13:07:57.933Z,101014.69
2023-05-19T13:10:29.004Z,101013.63
2023-05-19T13:13:00.453Z,101015.41
2023-05-19T13:15:31.850Z,101013.16
2023-05-19T13:18:00.558Z,101014.09
2023-05-19T13:20:28.647Z,101007.41
2023-05-19T13:22:56.992Z,101000.88
2023-05-19T13:25:24.600Z,100998.91
2023-05-19T13:27:51.897Z,100996.16
2023-05-19T13:30:19.466Z,101003.37
2023-05-19T13:32:47.140Z,100997.03
2023-05-19T13:35:14.993Z,100985.06
2023-05-19T13:37:42.749Z,100980.69
2023-05-19T13:40:10.981Z,100981.66
2023-05-19T13:42:38.384Z,100976.84
2023-05-19T13:45:06.154Z,100980.34
2023-05-19T13:47:33.729Z,100979.69
2023-05-19T13:50:04.607Z,100979.31
2023-05-19T13:52:31.989Z,100970.69
2023-05-19T13:54:59.521Z,100973.16
2023-05-19T13:57:26.814Z,100967.25
2023-05-19T14:00:02.815Z,100961.03
2023-05-19T14:02:39.822Z,100965.66
2023-05-19T14:05:08.094Z,100958.75
2023-05-19T14:07:35.939Z,100964.16
2023-05-19T14:10:05.485Z,100960.06
2023-05-19T14:12:41.647Z,100960.75
2023-05-19T14:15:20.135Z,100957.78
2023-05-19T14:17:49.034Z,100964.31
2023-05-19T14:20:16.795Z,100967.09
2023-05-19T14:22:44.003Z,100966.50
2023-05-19T14:25:11.521Z,100958.63
2023-05-19T14:27:40.040Z,100958.56
2023-05-19T14:30:08.405Z,100960.97
2023-05-19T14:32:36.116Z,100962.72
2023-05-19T14:35:03.678Z,100960.59
2023-05-19T14:37:31.953Z,100963.63
2023-05-19T14:39:59.569Z,100957.31
2023-05-19T14:42:26.822Z,100957.03
2023-05-19T14:44:54.066Z,100946.66
2023-05-19T14:47:21.558Z,100942.81
2023-05-19T14:49:48.915Z,100945.53
2023-05-19T14:52:16.252Z,100941.31
2023-05-19T14:54:43.734Z,100949.31
2023-05-19T14:57:10.962Z,100955.66
2023-05-19T14:59:38.735Z,100948.19
2023-05-19T15:02:06.387Z,100943.78
2023-05-19T15:04:33.647Z,100944.16
2023-05-19T15:09:31.803Z,100942.25
2023-05-19T15:12:01.159Z,100939.03
2023-05-19T15:14:30.495Z,100938.84
2023-05-19T15:16:58.971Z,100944.16
2023-05-19T15:19:26.487Z,100938.50
2023-05-19T15:21:53.929Z,100941.78
2023-05-19T15:24:21.520Z,100942.56
2023-05-19T15:26:48.741Z,100945.03
2023-05-19T15:29:15.941Z,100943.78
2023-05-19T15:31:43.524Z,100943.50
2023-05-19T15:34:10.785Z,100950.16
2023-05-19T15:36:38.022Z,100947.41
2023-05-19T15:39:06.492Z,100944.12
2023-05-19T15:41:33.682Z,100942.53
2023-05-19T15:44:02.309Z,100940.53
2023-05-19T15:46:30.419Z,100941.47
2023-05-19T15:48:57.647Z,100945.37
2023-05-19T15:51:24.991Z,100942.47
2023-05-19T15:53:52.527Z,100946.00
2023-05-19T15:56:19.690Z,100941.69
2023-05-19T15:58:46.937Z,100941.72
2023-05-19T16:01:15.256Z,100943.16
2023-05-19T16:03:43.603Z,100937.19
2023-05-19T16:06:11.031Z,100935.53
2023-05-19T16:08:38.295Z,100940.84
2023-05-19T16:11:06.009Z,100937.72
2023-05-19T16:13:33.657Z,100943.25
2023-05-19T16:16:01.118Z,100938.84
2023-05-19T16:18:31.740Z,100944.84
2023-05-19T16:20:58.918Z,100937.19
2023-05-19T16:23:27.418Z,100939.47
2023-05-19T16:25:54.920Z,100948.41
2023-05-19T16:28:24.477Z,100939.19
2023-05-19T16:30:52.078Z,100943.16
2023-05-19T16:33:19.640Z,100941.00
2023-05-19T16:35:46.826Z,100945.59
2023-05-19T16:38:13.950Z,100946.34
2023-05-19T16:40:41.403Z,100942.66
2023-05-19T16:43:08.544Z,100944.47
2023-05-19T16:45:35.758Z,100955.44
2023-05-19T16:48:03.618Z,100945.91
2023-05-19T16:50:31.042Z,100945.75
2023-05-19T16:52:58.232Z,100938.34
2023-05-19T16:55:26.758Z,100935.00
2023-05-19T16:57:53.995Z,100936.75
2023-05-19T17:00:21.213Z,100939.00
2023-05-19T17:02:48.695Z,100936.75
2023-05-19T17:05:15.952Z,100933.25
2023-05-19T17:07:43.093Z,100934.47
2023-05-19T17:10:10.941Z,100935.37
2023-05-19T17:12:38.110Z,100925.37
2023-05-19T17:15:05.911Z,100927.63
2023-05-19T17:17:33.357Z,100931.97
2023-05-19T17:20:00.656Z,100931.94
2023-05-19T17:22:28.807Z,100935.72
2023-05-19T17:24:57.787Z,100936.16
2023-05-19T17:27:25.053Z,100937.63
2023-05-19T17:29:52.179Z,100937.38
2023-05-19T17:32:25.488Z,100946.72
2023-05-19T17:34:52.946Z,100947.03
2023-05-19T17:37:23.475Z,100945.97
2023-05-19T17:39:50.934Z,100941.69
2023-05-19T17:42:18.097Z,100954.06
2023-05-19T17:44:45.532Z,100951.28
2023-05-19T17:47:12.646Z,100958.50
2023-05-19T17:49:40.308Z,100952.91
2023-05-19T17:52:08.348Z,100955.22
2023-05-19T17:54:35.861Z,100962.41
2023-05-19T17:57:03.628Z,100962.34
2023-05-19T17:59:31.385Z,100954.78
2023-05-19T18:01:58.829Z,100951.53
2023-05-19T18:04:26.598Z,100955.19
2023-05-19T18:06:54.576Z,100949.56
2023-05-19T18:09:23.368Z,100951.28
2023-05-19T18:11:50.832Z,100948.84
2023-05-19T18:14:18.027Z,100948.22
2023-05-19T18:16:45.323Z,100953.31
2023-05-19T18:19:12.890Z,100953.22
2023-05-19T18:21:40.088Z,100950.19
2023-05-19T18:24:07.302Z,100952.97
2023-05-19T18:26:37.636Z,100951.19
2023-05-19T18:29:05.051Z,100955.06
2023-05-19T18:31:32.265Z,100958.19
2023-05-19T18:33:59.771Z,100961.66
2023-05-19T18:36:27.027Z,100956.50
2023-05-19T18:38:55.130Z,100956.41
2023-05-19T18:41:22.827Z,100962.47
2023-05-19T18:43:50.105Z,100956.13
2023-05-19T18:46:18.000Z,100973.19
2023-05-19T18:48:45.616Z,100967.91
2023-05-19T18:51:15.768Z,100965.50
2023-05-19T18:53:42.885Z,100972.19
2023-05-19T18:56:15.199Z,100971.34
2023-05-19T18:58:42.409Z,100978.00
2023-05-19T19:01:09.966Z,100983.00
2023-05-19T19:03:37.212Z,100979.87
2023-05-19T19:06:04.383Z,100982.94
2023-05-19T19:08:31.862Z,100981.59
2023-05-19T19:11:01.044Z,100981.03
2023-05-19T19:13:28.399Z,100980.53
2023-05-19T19:15:55.830Z,100984.94
2023-05-19T19:18:23.001Z,100984.66
2023-05-19T19:20:50.159Z,100984.28
2023-05-19T19:23:17.747Z,100987.22
2023-05-19T19:25:44.856Z,100989.34
2023-05-19T19:28:11.989Z,100997.91
2023-05-19T19:30:39.576Z,100991.00
2023-05-19T19:33:07.065Z,100995.84
2023-05-19T19:35:34.966Z,101000.91
2023-05-19T19:38:02.467Z,100995.16
2023-05-19T19:40:29.770Z,100997.53
2023-05-19T19:42:57.021Z,100999.25
2023-05-19T19:45:25.924Z,100991.66
2023-05-19T19:47:53.547Z,100997.53
2023-05-19T19:50:20.793Z,101001.19
2023-05-19T19:52:48.254Z,101003.88
2023-05-19T19:55:15.828Z,101003.88
2023-05-19T19:57:45.601Z,101002.28
2023-05-19T20:00:13.555Z,101001.44
2023-05-19T20:02:55.856Z,101001.19
2023-05-19T20:05:29.112Z,100998.75
2023-05-19T20:07:56.520Z,101003.91
2023-05-19T20:10:23.642Z,101002.84
2023-05-19T20:12:51.184Z,101000.22
2023-05-19T20:15:18.772Z,100996.87
2023-05-19T20:17:46.286Z,100995.94
2023-05-19T20:20:13.928Z,101002.41
2023-05-19T20:22:41.406Z,101003.63
2023-05-19T20:25:08.950Z,101002.16
2023-05-19T20:27:36.145Z,101005.25
2023-05-19T20:30:04.009Z,100998.81
2023-05-19T20:32:31.658Z,101001.25
2023-05-19T20:34:58.924Z,100996.44
2023-05-19T20:37:26.517Z,101006.31
2023-05-19T20:39:53.648Z,101003.34
2023-05-19T20:42:20.769Z,101008.38
2023-05-19T20:44:48.201Z,101002.91
2023-05-19T20:47:15.375Z,100997.66
2023-05-19T20:49:42.574Z,101001.25
2023-05-19T20:52:10.119Z,100994.97
2023-05-19T20:54:37.413Z,100992.87
2023-05-19T20:57:08.956Z,100990.13
2023-05-19T20:59:36.437Z,100988.66
2023-05-19T21:02:04.339Z,100991.62
2023-05-19T21:04:33.035Z,100984.09
2023-05-19T21:07:01.073Z,100985.16
2023-05-19T21:09:28.268Z,100981.19
2023-05-19T21:11:55.441Z,100982.22
2023-05-19T21:14:22.959Z,100988.66
2023-05-19T21:16:51.338Z,100998.41
2023-05-19T21:19:20.580Z,100995.69
2023-05-19T21:21:48.204Z,101001.75
2023-05-19T21:24:15.588Z,101003.84
2023-05-19T21:26:43.193Z,100995.38
2023-05-19T21:29:10.817Z,100998.00
2023-05-19T21:31:38.240Z,100996.53
2023-05-19T21:34:07.513Z,100999.47
2023-05-19T21:36:35.250Z,100994.47
2023-05-19T21:39:03.663Z,100989.53
2023-05-19T21:41:33.502Z,100992.25
2023-05-19T21:44:00.931Z,100990.91
2023-05-19T21:46:29.124Z,100990.91
2023-05-19T21:48:56.483Z,100985.13
2023-05-19T21:51:23.922Z,100983.59
2023-05-19T21:53:51.054Z,100983.13
2023-05-19T21:56:18.159Z,100985.03
2023-05-19T21:58:45.606Z,100985.22
2023-05-19T22:01:13.220Z,100989.75
2023-05-19T22:03:40.797Z,100990.78
2023-05-19T22:06:08.307Z,100978.94
2023-05-19T22:08:35.473Z,100974.75
2023-05-19T22:11:02.952Z,100979.37
2023-05-19T22:13:30.308Z,100974.53
2023-05-19T22:15:58.108Z,100966.97
2023-05-19T22:18:25.521Z,100968.97
2023-05-19T22:20:52.644Z,100960.06
2023-05-19T22:23:19.744Z,100957.62
2023-05-19T22:25:47.160Z,100951.78
2023-05-19T22:28:14.392Z,100948.72
2023-05-19T22:30:42.296Z,100945.47
2023-05-19T22:33:11.709Z,100948.50
2023-05-19T22:35:38.947Z,100947.88
2023-05-19T22:38:07.477Z,100944.53
2023-05-19T22:40:37.003Z,100940.12
2023-05-19T22:43:04.240Z,100945.25
2023-05-19T22:45:31.647Z,100943.56
2023-05-19T22:47:59.484Z,100933.62
2023-05-19T22:50:26.783Z,100941.75
2023-05-19T22:52:53.976Z,100940.09
2023-05-19T22:55:21.463Z,100942.16
2023-05-19T22:57:48.678Z,100943.66
2023-05-19T23:00:18.641Z,100939.88
2023-05-19T23:02:46.846Z,100937.47
2023-05-19T23:05:14.053Z,100941.13
2023-05-19T23:07:41.258Z,100936.09
2023-05-19T23:10:09.062Z,100942.81
2023-05-19T23:12:36.236Z,100939.25
2023-05-19T23:15:03.884Z,100933.91
2023-05-19T23:17:33.304Z,100932.34
2023-05-19T23:20:00.549Z,100927.00
2023-05-19T23:22:27.805Z,100920.19
2023-05-19T23:24:55.267Z,100922.91
2023-05-19T23:27:22.340Z,100916.66
2023-05-19T23:29:51.524Z,100915.78
2023-05-19T23:32:18.902Z,100912.00
2023-05-19T23:34:47.101Z,100916.81
2023-05-19T23:37:14.428Z,100914.28
2023-05-19T23:39:41.971Z,100912.81
2023-05-19T23:42:09.181Z,100910.41
2023-05-19T23:44:36.399Z,100909.94
2023-05-19T23:47:03.997Z,100911.50
2023-05-19T23:49:31.179Z,100898.31
2023-05-19T23:51:58.330Z,100901.50
2023-05-19T23:54:26.637Z,100890.41
2023-05-19T23:56:55.773Z,100886.41
2023-05-19T23:59:23.128Z,100892.03
